sensor_id;sensor_type;location;lat;lon;timestamp;P1;durP1;ratioP1;P2;durP2;ratioP2
20857;SDS011;10589;53.636;10.012;2023-04-24T03:46:58;2.83;;;2.37;;
20857;SDS011;10589;53.636;10.012;2023-04-24T03:49:23;2.60;;;2.00;;
20857;SDS011;10589;53.636;10.012;2023-04-24T03:51:49;3.03;;;2.47;;
20857;SDS011;10589;53.636;10.012;2023-04-24T03:54:15;3.47;;;2.30;;
20857;SDS011;10589;53.636;10.012;2023-04-24T03:56:41;2.13;;;1.93;;
20857;SDS011;10589;53.636;10.012;2023-04-24T03:59:06;3.17;;;2.37;;
20857;SDS011;10589;53.636;10.012;2023-04-24T04:01:32;4.40;;;2.57;;
20857;SDS011;10589;53.636;10.012;2023-04-24T04:04:01;2.17;;;1.97;;
20857;SDS011;10589;53.636;10.012;2023-04-24T04:06:27;3.30;;;2.00;;
20857;SDS011;10589;53.636;10.012;2023-04-24T04:08:53;2.77;;;2.20;;
20857;SDS011;10589;53.636;10.012;2023-04-24T04:11:19;2.20;;;1.80;;
20857;SDS011;10589;53.636;10.012;2023-04-24T04:13:45;2.53;;;2.13;;
20857;SDS011;10589;53.636;10.012;2023-04-24T04:16:12;2.93;;;2.33;;
20857;SDS011;10589;53.636;10.012;2023-04-24T04:18:38;3.97;;;1.90;;
20857;SDS011;10589;53.636;10.012;2023-04-24T04:21:04;2.00;;;1.80;;
20857;SDS011;10589;53.636;10.012;2023-04-24T04:23:30;1.73;;;1.57;;
20857;SDS011;10589;53.636;10.012;2023-04-24T04:25:56;2.10;;;1.57;;
20857;SDS011;10589;53.636;10.012;2023-04-24T04:28:22;2.23;;;1.80;;
20857;SDS011;10589;53.636;10.012;2023-04-24T04:30:49;2.97;;;1.33;;
20857;SDS011;10589;53.636;10.012;2023-04-24T04:33:18;4.03;;;1.70;;
20857;SDS011;10589;53.636;10.012;2023-04-24T04:35:45;2.00;;;1.33;;
20857;SDS011;10589;53.636;10.012;2023-04-24T04:38:14;2.10;;;1.40;;
20857;SDS011;10589;53.636;10.012;2023-04-24T04:40:40;1.53;;;1.43;;
20857;SDS011;10589;53.636;10.012;2023-04-24T04:43:06;2.40;;;1.53;;
20857;SDS011;10589;53.636;10.012;2023-04-24T04:45:31;2.77;;;1.50;;
20857;SDS011;10589;53.636;10.012;2023-04-24T04:47:59;2.30;;;1.10;;
20857;SDS011;10589;53.636;10.012;2023-04-24T04:50:28;1.30;;;1.20;;
20857;SDS011;10589;53.636;10.012;2023-04-24T04:52:54;3.17;;;1.40;;
20857;SDS011;10589;53.636;10.012;2023-04-24T04:55:19;2.10;;;1.30;;
20857;SDS011;10589;53.636;10.012;2023-04-24T04:57:46;1.83;;;1.40;;
20857;SDS011;10589;53.636;10.012;2023-04-24T05:00:12;2.43;;;1.53;;
20857;SDS011;10589;53.636;10.012;2023-04-24T05:02:38;1.70;;;1.33;;
20857;SDS011;10589;53.636;10.012;2023-04-24T05:05:04;2.77;;;1.33;;
20857;SDS011;10589;53.636;10.012;2023-04-24T05:07:31;1.40;;;1.20;;
20857;SDS011;10589;53.636;10.012;2023-04-24T05:09:57;1.10;;;1.00;;
20857;SDS011;10589;53.636;10.012;2023-04-24T05:12:22;3.03;;;1.13;;
20857;SDS011;10589;53.636;10.012;2023-04-24T05:14:48;1.10;;;1.00;;
20857;SDS011;10589;53.636;10.012;2023-04-24T05:17:14;3.50;;;1.50;;
20857;SDS011;10589;53.636;10.012;2023-04-24T05:19:40;3.57;;;1.30;;
20857;SDS011;10589;53.636;10.012;2023-04-24T05:22:05;2.20;;;1.33;;
20857;SDS011;10589;53.636;10.012;2023-04-24T05:24:32;3.03;;;1.27;;
20857;SDS011;10589;53.636;10.012;2023-04-24T05:26:58;2.00;;;1.20;;
20857;SDS011;10589;53.636;10.012;2023-04-24T05:29:24;2.63;;;1.27;;
20857;SDS011;10589;53.636;10.012;2023-04-24T05:31:51;1.63;;;1.00;;
20857;SDS011;10589;53.636;10.012;2023-04-24T05:34:17;3.20;;;1.30;;
20857;SDS011;10589;53.636;10.012;2023-04-24T05:36:43;2.03;;;0.80;;
20857;SDS011;10589;53.636;10.012;2023-04-24T05:39:08;2.53;;;1.30;;
20857;SDS011;10589;53.636;10.012;2023-04-24T05:41:34;1.77;;;1.00;;
20857;SDS011;10589;53.636;10.012;2023-04-24T05:44:00;1.10;;;1.00;;
20857;SDS011;10589;53.636;10.012;2023-04-24T05:46:26;1.63;;;1.00;;
20857;SDS011;10589;53.636;10.012;2023-04-24T05:48:51;2.80;;;1.10;;
20857;SDS011;10589;53.636;10.012;2023-04-24T05:51:17;2.93;;;1.20;;
20857;SDS011;10589;53.636;10.012;2023-04-24T05:53:42;4.30;;;1.10;;
20857;SDS011;10589;53.636;10.012;2023-04-24T05:56:08;5.47;;;1.57;;
20857;SDS011;10589;53.636;10.012;2023-04-24T05:58:34;2.37;;;1.23;;
20857;SDS011;10589;53.636;10.012;2023-04-24T06:00:59;1.53;;;1.20;;
20857;SDS011;10589;53.636;10.012;2023-04-24T06:03:26;3.20;;;1.43;;
20857;SDS011;10589;53.636;10.012;2023-04-24T06:05:52;2.53;;;1.63;;
20857;SDS011;10589;53.636;10.012;2023-04-24T06:08:18;1.80;;;1.20;;
20857;SDS011;10589;53.636;10.012;2023-04-24T06:10:44;1.47;;;1.30;;
20857;SDS011;10589;53.636;10.012;2023-04-24T06:13:10;3.77;;;1.53;;
20857;SDS011;10589;53.636;10.012;2023-04-24T06:15:36;5.60;;;1.50;;
20857;SDS011;10589;53.636;10.012;2023-04-24T06:18:02;2.77;;;1.60;;
20857;SDS011;10589;53.636;10.012;2023-04-24T06:20:28;2.00;;;1.40;;
20857;SDS011;10589;53.636;10.012;2023-04-24T06:22:53;1.87;;;1.40;;
20857;SDS011;10589;53.636;10.012;2023-04-24T06:25:19;2.17;;;1.40;;
20857;SDS011;10589;53.636;10.012;2023-04-24T06:27:45;2.00;;;1.40;;
20857;SDS011;10589;53.636;10.012;2023-04-24T06:30:11;3.87;;;1.57;;
20857;SDS011;10589;53.636;10.012;2023-04-24T06:32:37;7.47;;;1.80;;
20857;SDS011;10589;53.636;10.012;2023-04-24T06:35:03;6.57;;;1.83;;
20857;SDS011;10589;53.636;10.012;2023-04-24T06:37:29;4.60;;;1.60;;
20857;SDS011;10589;53.636;10.012;2023-04-24T06:39:55;6.37;;;1.60;;
20857;SDS011;10589;53.636;10.012;2023-04-24T06:42:20;2.77;;;1.60;;
20857;SDS011;10589;53.636;10.012;2023-04-24T06:44:47;3.13;;;1.60;;
20857;SDS011;10589;53.636;10.012;2023-04-24T06:47:12;7.33;;;2.53;;
20857;SDS011;10589;53.636;10.012;2023-04-24T06:49:38;3.17;;;1.57;;
20857;SDS011;10589;53.636;10.012;2023-04-24T06:52:04;2.23;;;1.80;;
20857;SDS011;10589;53.636;10.012;2023-04-24T06:54:31;3.30;;;1.43;;
20857;SDS011;10589;53.636;10.012;2023-04-24T06:56:57;2.80;;;1.57;;
20857;SDS011;10589;53.636;10.012;2023-04-24T06:59:28;3.73;;;1.60;;
20857;SDS011;10589;53.636;10.012;2023-04-24T07:01:54;3.50;;;1.57;;
20857;SDS011;10589;53.636;10.012;2023-04-24T07:04:20;2.17;;;1.43;;
20857;SDS011;10589;53.636;10.012;2023-04-24T07:06:45;4.50;;;1.80;;
20857;SDS011;10589;53.636;10.012;2023-04-24T07:09:12;3.47;;;1.53;;
20857;SDS011;10589;53.636;10.012;2023-04-24T07:11:38;3.43;;;1.43;;
20857;SDS011;10589;53.636;10.012;2023-04-24T07:14:05;2.10;;;1.40;;
20857;SDS011;10589;53.636;10.012;2023-04-24T07:16:31;3.10;;;1.70;;
20857;SDS011;10589;53.636;10.012;2023-04-24T07:18:57;1.70;;;1.60;;
20857;SDS011;10589;53.636;10.012;2023-04-24T07:21:23;2.33;;;1.97;;
20857;SDS011;10589;53.636;10.012;2023-04-24T07:23:48;1.70;;;1.60;;
20857;SDS011;10589;53.636;10.012;2023-04-24T07:26:14;2.33;;;2.13;;
20857;SDS011;10589;53.636;10.012;2023-04-24T07:28:40;3.23;;;2.10;;
20857;SDS011;10589;53.636;10.012;2023-04-24T07:31:06;2.10;;;1.90;;
20857;SDS011;10589;53.636;10.012;2023-04-24T07:33:32;5.43;;;2.60;;
20857;SDS011;10589;53.636;10.012;2023-04-24T07:35:58;4.07;;;2.53;;
20857;SDS011;10589;53.636;10.012;2023-04-24T07:38:24;5.30;;;2.40;;
20857;SDS011;10589;53.636;10.012;2023-04-24T07:40:50;3.63;;;2.93;;
20857;SDS011;10589;53.636;10.012;2023-04-24T07:43:16;3.23;;;2.40;;
20857;SDS011;10589;53.636;10.012;2023-04-24T07:45:43;2.30;;;2.10;;
20857;SDS011;10589;53.636;10.012;2023-04-24T07:48:09;5.20;;;2.67;;
20857;SDS011;10589;53.636;10.012;2023-04-24T07:50:35;3.00;;;2.70;;
20857;SDS011;10589;53.636;10.012;2023-04-24T07:53:01;2.70;;;2.50;;
20857;SDS011;10589;53.636;10.012;2023-04-24T07:55:27;3.13;;;2.73;;
20857;SDS011;10589;53.636;10.012;2023-04-24T07:57:53;5.67;;;3.30;;
20857;SDS011;10589;53.636;10.012;2023-04-24T08:00:18;3.43;;;3.10;;
20857;SDS011;10589;53.636;10.012;2023-04-24T08:02:44;2.77;;;2.30;;
20857;SDS011;10589;53.636;10.012;2023-04-24T08:05:10;3.80;;;3.40;;
20857;SDS011;10589;53.636;10.012;2023-04-24T08:07:36;3.40;;;3.10;;
20857;SDS011;10589;53.636;10.012;2023-04-24T08:10:01;5.80;;;3.37;;
20857;SDS011;10589;53.636;10.012;2023-04-24T08:12:30;3.03;;;2.73;;
20857;SDS011;10589;53.636;10.012;2023-04-24T08:14:57;3.73;;;3.17;;
20857;SDS011;10589;53.636;10.012;2023-04-24T08:17:23;4.03;;;3.63;;
20857;SDS011;10589;53.636;10.012;2023-04-24T08:19:49;4.43;;;3.50;;
20857;SDS011;10589;53.636;10.012;2023-04-24T08:22:16;4.90;;;3.30;;
20857;SDS011;10589;53.636;10.012;2023-04-24T08:24:42;4.47;;;3.47;;
20857;SDS011;10589;53.636;10.012;2023-04-24T08:27:08;4.67;;;3.17;;
20857;SDS011;10589;53.636;10.012;2023-04-24T08:29:35;4.07;;;3.40;;
20857;SDS011;10589;53.636;10.012;2023-04-24T08:32:01;7.97;;;4.00;;
20857;SDS011;10589;53.636;10.012;2023-04-24T08:34:27;5.03;;;4.23;;
20857;SDS011;10589;53.636;10.012;2023-04-24T08:36:52;4.67;;;4.27;;
20857;SDS011;10589;53.636;10.012;2023-04-24T08:39:18;4.77;;;4.37;;
20857;SDS011;10589;53.636;10.012;2023-04-24T08:41:44;5.70;;;3.90;;
20857;SDS011;10589;53.636;10.012;2023-04-24T08:44:10;4.27;;;3.83;;
20857;SDS011;10589;53.636;10.012;2023-04-24T08:46:38;5.97;;;4.20;;
20857;SDS011;10589;53.636;10.012;2023-04-24T08:49:04;6.17;;;4.20;;
20857;SDS011;10589;53.636;10.012;2023-04-24T08:51:30;4.03;;;3.63;;
20857;SDS011;10589;53.636;10.012;2023-04-24T08:53:56;6.87;;;4.50;;
20857;SDS011;10589;53.636;10.012;2023-04-24T08:56:22;7.33;;;4.40;;
20857;SDS011;10589;53.636;10.012;2023-04-24T08:58:50;4.73;;;3.67;;
20857;SDS011;10589;53.636;10.012;2023-04-24T09:01:17;6.13;;;4.13;;
20857;SDS011;10589;53.636;10.012;2023-04-24T09:03:45;14.40;;;4.70;;
20857;SDS011;10589;53.636;10.012;2023-04-24T09:06:14;6.93;;;3.87;;
20857;SDS011;10589;53.636;10.012;2023-04-24T09:08:41;5.30;;;3.63;;
20857;SDS011;10589;53.636;10.012;2023-04-24T09:11:08;10.40;;;4.43;;
20857;SDS011;10589;53.636;10.012;2023-04-24T09:13:36;7.20;;;4.60;;
20857;SDS011;10589;53.636;10.012;2023-04-24T09:16:02;9.27;;;5.00;;
20857;SDS011;10589;53.636;10.012;2023-04-24T09:18:28;8.00;;;4.40;;
20857;SDS011;10589;53.636;10.012;2023-04-24T09:21:00;5.17;;;4.33;;
20857;SDS011;10589;53.636;10.012;2023-04-24T09:23:32;5.57;;;4.03;;
20857;SDS011;10589;53.636;10.012;2023-04-24T09:25:58;4.77;;;4.37;;
20857;SDS011;10589;53.636;10.012;2023-04-24T09:28:26;5.40;;;4.90;;
20857;SDS011;10589;53.636;10.012;2023-04-24T09:31:29;11.60;;;5.07;;
20857;SDS011;10589;53.636;10.012;2023-04-24T09:33:55;8.50;;;5.20;;
20857;SDS011;10589;53.636;10.012;2023-04-24T09:38:58;5.03;;;4.53;;
20857;SDS011;10589;53.636;10.012;2023-04-24T09:41:24;7.90;;;5.00;;
20857;SDS011;10589;53.636;10.012;2023-04-24T09:43:52;4.53;;;4.13;;
20857;SDS011;10589;53.636;10.012;2023-04-24T09:46:19;5.03;;;4.60;;
20857;SDS011;10589;53.636;10.012;2023-04-24T09:48:46;4.90;;;4.50;;
20857;SDS011;10589;53.636;10.012;2023-04-24T09:51:11;5.70;;;4.20;;
20857;SDS011;10589;53.636;10.012;2023-04-24T09:53:37;9.30;;;4.13;;
20857;SDS011;10589;53.636;10.012;2023-04-24T09:56:08;7.53;;;4.73;;
20857;SDS011;10589;53.636;10.012;2023-04-24T09:58:35;7.90;;;5.10;;
20857;SDS011;10589;53.636;10.012;2023-04-24T10:01:01;6.20;;;5.40;;
20857;SDS011;10589;53.636;10.012;2023-04-24T10:03:31;5.23;;;4.60;;
20857;SDS011;10589;53.636;10.012;2023-04-24T10:06:00;6.47;;;5.03;;
20857;SDS011;10589;53.636;10.012;2023-04-24T10:08:34;5.43;;;4.93;;
20857;SDS011;10589;53.636;10.012;2023-04-24T10:11:00;7.43;;;5.20;;
20857;SDS011;10589;53.636;10.012;2023-04-24T10:13:27;6.70;;;6.03;;
20857;SDS011;10589;53.636;10.012;2023-04-24T10:15:53;6.17;;;5.67;;
20857;SDS011;10589;53.636;10.012;2023-04-24T10:18:19;7.27;;;6.57;;
20857;SDS011;10589;53.636;10.012;2023-04-24T10:20:46;7.70;;;6.90;;
20857;SDS011;10589;53.636;10.012;2023-04-24T10:23:12;7.87;;;6.47;;
20857;SDS011;10589;53.636;10.012;2023-04-24T10:25:37;7.30;;;6.10;;
20857;SDS011;10589;53.636;10.012;2023-04-24T10:28:03;8.80;;;7.07;;
20857;SDS011;10589;53.636;10.012;2023-04-24T10:30:31;7.50;;;6.80;;
20857;SDS011;10589;53.636;10.012;2023-04-24T10:33:03;9.20;;;7.23;;
20857;SDS011;10589;53.636;10.012;2023-04-24T10:35:31;10.67;;;6.87;;
20857;SDS011;10589;53.636;10.012;2023-04-24T10:37:59;11.13;;;7.07;;
20857;SDS011;10589;53.636;10.012;2023-04-24T10:40:31;8.30;;;7.50;;
20857;SDS011;10589;53.636;10.012;2023-04-24T10:42:59;9.10;;;7.27;;
20857;SDS011;10589;53.636;10.012;2023-04-24T10:45:28;10.73;;;7.27;;
20857;SDS011;10589;53.636;10.012;2023-04-24T10:48:07;10.50;;;7.80;;
20857;SDS011;10589;53.636;10.012;2023-04-24T10:50:46;9.67;;;7.90;;
20857;SDS011;10589;53.636;10.012;2023-04-24T10:53:17;13.73;;;8.93;;
20857;SDS011;10589;53.636;10.012;2023-04-24T10:55:46;14.33;;;8.70;;
20857;SDS011;10589;53.636;10.012;2023-04-24T10:58:17;9.23;;;8.33;;
20857;SDS011;10589;53.636;10.012;2023-04-24T11:00:55;12.00;;;9.77;;
20857;SDS011;10589;53.636;10.012;2023-04-24T11:03:31;11.63;;;8.27;;
20857;SDS011;10589;53.636;10.012;2023-04-24T11:06:08;10.13;;;8.67;;
20857;SDS011;10589;53.636;10.012;2023-04-24T11:08:38;13.43;;;9.17;;
20857;SDS011;10589;53.636;10.012;2023-04-24T11:11:08;9.90;;;8.67;;
20857;SDS011;10589;53.636;10.012;2023-04-24T11:26:51;9.50;;;8.50;;
20857;SDS011;10589;53.636;10.012;2023-04-24T11:29:21;9.80;;;7.87;;
20857;SDS011;10589;53.636;10.012;2023-04-24T11:31:47;10.50;;;8.40;;
20857;SDS011;10589;53.636;10.012;2023-04-24T11:34:15;11.00;;;8.03;;
20857;SDS011;10589;53.636;10.012;2023-04-24T11:36:47;7.97;;;7.13;;
20857;SDS011;10589;53.636;10.012;2023-04-24T11:39:14;8.03;;;7.23;;
20857;SDS011;10589;53.636;10.012;2023-04-24T11:41:40;8.77;;;6.93;;
20857;SDS011;10589;53.636;10.012;2023-04-24T11:44:06;10.10;;;6.50;;
20857;SDS011;10589;53.636;10.012;2023-04-24T11:46:33;7.77;;;6.77;;
20857;SDS011;10589;53.636;10.012;2023-04-24T11:48:59;8.63;;;7.73;;
20857;SDS011;10589;53.636;10.012;2023-04-24T11:51:25;12.27;;;7.83;;
20857;SDS011;10589;53.636;10.012;2023-04-24T11:53:53;9.27;;;7.40;;
20857;SDS011;10589;53.636;10.012;2023-04-24T11:56:23;17.17;;;7.60;;
20857;SDS011;10589;53.636;10.012;2023-04-24T11:58:51;9.57;;;7.87;;
20857;SDS011;10589;53.636;10.012;2023-04-24T12:01:18;7.90;;;7.10;;
20857;SDS011;10589;53.636;10.012;2023-04-24T12:03:50;9.43;;;7.60;;
20857;SDS011;10589;53.636;10.012;2023-04-24T12:06:24;9.10;;;7.07;;
20857;SDS011;10589;53.636;10.012;2023-04-24T12:08:50;8.03;;;7.00;;
20857;SDS011;10589;53.636;10.012;2023-04-24T12:11:17;9.57;;;6.97;;
20857;SDS011;10589;53.636;10.012;2023-04-24T12:13:44;7.03;;;6.33;;
20857;SDS011;10589;53.636;10.012;2023-04-24T12:16:10;11.00;;;6.30;;
20857;SDS011;10589;53.636;10.012;2023-04-24T12:18:40;6.97;;;5.83;;
20857;SDS011;10589;53.636;10.012;2023-04-24T12:21:19;6.80;;;5.83;;
20857;SDS011;10589;53.636;10.012;2023-04-24T12:23:54;6.73;;;5.40;;
20857;SDS011;10589;53.636;10.012;2023-04-24T12:26:20;5.73;;;5.07;;
20857;SDS011;10589;53.636;10.012;2023-04-24T12:28:48;6.87;;;5.30;;
20857;SDS011;10589;53.636;10.012;2023-04-24T12:31:17;5.90;;;5.30;;
20857;SDS011;10589;53.636;10.012;2023-04-24T12:33:45;6.83;;;5.37;;
20857;SDS011;10589;53.636;10.012;2023-04-24T12:36:11;7.00;;;4.87;;
20857;SDS011;10589;53.636;10.012;2023-04-24T12:38:37;6.07;;;5.47;;
20857;SDS011;10589;53.636;10.012;2023-04-24T12:43:33;7.53;;;5.60;;
20857;SDS011;10589;53.636;10.012;2023-04-24T12:45:59;8.33;;;6.23;;
20857;SDS011;10589;53.636;10.012;2023-04-24T12:48:25;6.60;;;5.70;;
20857;SDS011;10589;53.636;10.012;2023-04-24T12:50:51;7.00;;;6.30;;
20857;SDS011;10589;53.636;10.012;2023-04-24T12:53:17;7.10;;;5.73;;
20857;SDS011;10589;53.636;10.012;2023-04-24T12:55:43;5.87;;;5.27;;
20857;SDS011;10589;53.636;10.012;2023-04-24T12:58:09;6.87;;;5.70;;
20857;SDS011;10589;53.636;10.012;2023-04-24T13:00:36;6.80;;;5.57;;
20857;SDS011;10589;53.636;10.012;2023-04-24T13:03:04;6.37;;;5.73;;
20857;SDS011;10589;53.636;10.012;2023-04-24T13:05:29;6.33;;;5.70;;
20857;SDS011;10589;53.636;10.012;2023-04-24T13:07:55;10.33;;;5.90;;
20857;SDS011;10589;53.636;10.012;2023-04-24T13:10:22;7.73;;;5.97;;
20857;SDS011;10589;53.636;10.012;2023-04-24T13:12:47;5.80;;;5.20;;
20857;SDS011;10589;53.636;10.012;2023-04-24T13:15:13;8.20;;;6.40;;
20857;SDS011;10589;53.636;10.012;2023-04-24T13:17:39;5.80;;;5.30;;
20857;SDS011;10589;53.636;10.012;2023-04-24T13:20:05;10.90;;;5.80;;
20857;SDS011;10589;53.636;10.012;2023-04-24T13:22:31;6.60;;;5.90;;
20857;SDS011;10589;53.636;10.012;2023-04-24T13:24:57;5.73;;;5.20;;
20857;SDS011;10589;53.636;10.012;2023-04-24T13:27:22;6.17;;;5.50;;
20857;SDS011;10589;53.636;10.012;2023-04-24T13:29:48;5.70;;;5.20;;
20857;SDS011;10589;53.636;10.012;2023-04-24T13:32:13;6.87;;;5.40;;
20857;SDS011;10589;53.636;10.012;2023-04-24T13:34:39;6.47;;;5.27;;
20857;SDS011;10589;53.636;10.012;2023-04-24T13:37:05;7.40;;;4.60;;
20857;SDS011;10589;53.636;10.012;2023-04-24T13:39:31;5.13;;;4.73;;
20857;SDS011;10589;53.636;10.012;2023-04-24T13:41:57;5.40;;;4.80;;
20857;SDS011;10589;53.636;10.012;2023-04-24T13:44:22;5.03;;;4.53;;
20857;SDS011;10589;53.636;10.012;2023-04-24T13:46:50;5.40;;;4.90;;
20857;SDS011;10589;53.636;10.012;2023-04-24T13:49:18;6.77;;;4.77;;
20857;SDS011;10589;53.636;10.012;2023-04-24T13:51:44;5.03;;;4.53;;
20857;SDS011;10589;53.636;10.012;2023-04-24T13:54:10;5.70;;;4.90;;
20857;SDS011;10589;53.636;10.012;2023-04-24T13:56:36;5.03;;;4.60;;
20857;SDS011;10589;53.636;10.012;2023-04-24T13:59:02;6.23;;;5.17;;
20857;SDS011;10589;53.636;10.012;2023-04-24T14:01:28;5.13;;;4.50;;
20857;SDS011;10589;53.636;10.012;2023-04-24T14:03:54;5.37;;;4.87;;
20857;SDS011;10589;53.636;10.012;2023-04-24T14:06:21;6.67;;;5.10;;
20857;SDS011;10589;53.636;10.012;2023-04-24T14:08:48;5.90;;;5.10;;
20857;SDS011;10589;53.636;10.012;2023-04-24T14:11:14;6.20;;;4.63;;
20857;SDS011;10589;53.636;10.012;2023-04-24T14:13:43;5.87;;;4.97;;
20857;SDS011;10589;53.636;10.012;2023-04-24T14:16:10;5.90;;;5.20;;
20857;SDS011;10589;53.636;10.012;2023-04-24T14:18:36;5.37;;;4.87;;
20857;SDS011;10589;53.636;10.012;2023-04-24T14:21:02;6.37;;;5.00;;
20857;SDS011;10589;53.636;10.012;2023-04-24T14:23:28;5.37;;;4.87;;
20857;SDS011;10589;53.636;10.012;2023-04-24T14:25:54;5.93;;;4.80;;
20857;SDS011;10589;53.636;10.012;2023-04-24T14:28:20;5.43;;;4.93;;
20857;SDS011;10589;53.636;10.012;2023-04-24T14:30:47;6.67;;;4.70;;
20857;SDS011;10589;53.636;10.012;2023-04-24T14:33:13;5.23;;;4.73;;
20857;SDS011;10589;53.636;10.012;2023-04-24T14:35:39;7.67;;;5.37;;
20857;SDS011;10589;53.636;10.012;2023-04-24T14:38:06;7.33;;;5.97;;
20857;SDS011;10589;53.636;10.012;2023-04-24T14:40:32;9.03;;;7.50;;
20857;SDS011;10589;53.636;10.012;2023-04-24T14:42:58;9.53;;;8.47;;
20857;SDS011;10589;53.636;10.012;2023-04-24T14:45:24;12.00;;;10.80;;
20857;SDS011;10589;53.636;10.012;2023-04-24T14:47:50;12.27;;;10.90;;
20857;SDS011;10589;53.636;10.012;2023-04-24T14:50:15;12.60;;;11.30;;
20857;SDS011;10589;53.636;10.012;2023-04-24T14:52:41;14.83;;;12.97;;
20857;SDS011;10589;53.636;10.012;2023-04-24T14:55:07;14.00;;;12.53;;
20857;SDS011;10589;53.636;10.012;2023-04-24T14:57:33;14.87;;;12.80;;
20857;SDS011;10589;53.636;10.012;2023-04-24T15:00:00;14.67;;;13.10;;
20857;SDS011;10589;53.636;10.012;2023-04-24T15:02:28;16.80;;;14.00;;
20857;SDS011;10589;53.636;10.012;2023-04-24T15:04:55;16.30;;;13.87;;
20857;SDS011;10589;53.636;10.012;2023-04-24T15:07:21;15.53;;;13.87;;
20857;SDS011;10589;53.636;10.012;2023-04-24T15:09:46;17.50;;;13.83;;
20857;SDS011;10589;53.636;10.012;2023-04-24T15:12:12;15.10;;;13.07;;
20857;SDS011;10589;53.636;10.012;2023-04-24T15:14:38;13.20;;;11.90;;
20857;SDS011;10589;53.636;10.012;2023-04-24T15:17:04;12.40;;;10.50;;
20857;SDS011;10589;53.636;10.012;2023-04-24T15:19:29;11.90;;;10.67;;
20857;SDS011;10589;53.636;10.012;2023-04-24T15:21:56;13.20;;;11.27;;
20857;SDS011;10589;53.636;10.012;2023-04-24T15:24:21;15.20;;;10.80;;
20857;SDS011;10589;53.636;10.012;2023-04-24T15:26:47;11.93;;;8.87;;
20857;SDS011;10589;53.636;10.012;2023-04-24T15:29:13;11.70;;;7.83;;
20857;SDS011;10589;53.636;10.012;2023-04-24T15:31:38;8.60;;;7.27;;
20857;SDS011;10589;53.636;10.012;2023-04-24T15:34:05;8.67;;;7.73;;
20857;SDS011;10589;53.636;10.012;2023-04-24T15:36:32;6.20;;;4.33;;
20857;SDS011;10589;53.636;10.012;2023-04-24T15:38:57;4.60;;;3.67;;
20857;SDS011;10589;53.636;10.012;2023-04-24T15:41:23;5.83;;;4.10;;
20857;SDS011;10589;53.636;10.012;2023-04-24T15:43:49;5.77;;;3.90;;
20857;SDS011;10589;53.636;10.012;2023-04-24T15:46:15;7.20;;;3.90;;
20857;SDS011;10589;53.636;10.012;2023-04-24T15:48:43;5.60;;;3.63;;
20857;SDS011;10589;53.636;10.012;2023-04-24T15:51:09;5.83;;;4.23;;
20857;SDS011;10589;53.636;10.012;2023-04-24T15:53:35;6.47;;;4.40;;
20857;SDS011;10589;53.636;10.012;2023-04-24T15:56:01;5.20;;;4.60;;
20857;SDS011;10589;53.636;10.012;2023-04-24T15:58:27;9.37;;;5.60;;
20857;SDS011;10589;53.636;10.012;2023-04-24T16:00:53;9.93;;;6.13;;
20857;SDS011;10589;53.636;10.012;2023-04-24T16:03:19;8.37;;;6.87;;
20857;SDS011;10589;53.636;10.012;2023-04-24T16:05:45;12.23;;;8.10;;
20857;SDS011;10589;53.636;10.012;2023-04-24T16:08:11;11.43;;;8.40;;
20857;SDS011;10589;53.636;10.012;2023-04-24T16:10:38;10.53;;;8.67;;
20857;SDS011;10589;53.636;10.012;2023-04-24T16:13:03;15.50;;;10.37;;
20857;SDS011;10589;53.636;10.012;2023-04-24T16:15:30;14.27;;;10.87;;
20857;SDS011;10589;53.636;10.012;2023-04-24T16:17:56;18.00;;;12.13;;
20857;SDS011;10589;53.636;10.012;2023-04-24T16:20:22;18.33;;;11.73;;
20857;SDS011;10589;53.636;10.012;2023-04-24T16:22:48;17.50;;;11.20;;
20857;SDS011;10589;53.636;10.012;2023-04-24T16:25:13;16.67;;;11.70;;
20857;SDS011;10589;53.636;10.012;2023-04-24T16:27:39;13.23;;;9.80;;
20857;SDS011;10589;53.636;10.012;2023-04-24T16:30:05;12.57;;;8.80;;
20857;SDS011;10589;53.636;10.012;2023-04-24T16:32:31;12.20;;;9.30;;
20857;SDS011;10589;53.636;10.012;2023-04-24T16:34:57;11.60;;;8.70;;
20857;SDS011;10589;53.636;10.012;2023-04-24T16:37:22;10.57;;;7.70;;
20857;SDS011;10589;53.636;10.012;2023-04-24T16:39:48;11.27;;;7.47;;
20857;SDS011;10589;53.636;10.012;2023-04-24T16:42:14;12.13;;;8.20;;
20857;SDS011;10589;53.636;10.012;2023-04-24T16:44:40;11.27;;;7.63;;
20857;SDS011;10589;53.636;10.012;2023-04-24T16:47:10;10.87;;;7.80;;
20857;SDS011;10589;53.636;10.012;2023-04-24T16:49:38;10.97;;;7.20;;
20857;SDS011;10589;53.636;10.012;2023-04-24T16:52:03;10.23;;;7.20;;
20857;SDS011;10589;53.636;10.012;2023-04-24T16:54:29;9.63;;;6.63;;
20857;SDS011;10589;53.636;10.012;2023-04-24T16:56:58;9.03;;;5.40;;
20857;SDS011;10589;53.636;10.012;2023-04-24T16:59:24;7.70;;;5.40;;
20857;SDS011;10589;53.636;10.012;2023-04-24T17:01:49;7.20;;;5.17;;
20857;SDS011;10589;53.636;10.012;2023-04-24T17:04:15;10.17;;;6.17;;
20857;SDS011;10589;53.636;10.012;2023-04-24T17:06:41;8.60;;;5.93;;
20857;SDS011;10589;53.636;10.012;2023-04-24T17:09:07;9.03;;;5.70;;
20857;SDS011;10589;53.636;10.012;2023-04-24T17:11:33;8.87;;;6.70;;
20857;SDS011;10589;53.636;10.012;2023-04-24T17:13:58;9.13;;;6.37;;
20857;SDS011;10589;53.636;10.012;2023-04-24T17:16:24;9.20;;;6.67;;
20857;SDS011;10589;53.636;10.012;2023-04-24T17:18:50;8.90;;;7.20;;
20857;SDS011;10589;53.636;10.012;2023-04-24T17:21:16;10.40;;;6.70;;
20857;SDS011;10589;53.636;10.012;2023-04-24T17:23:41;9.03;;;6.90;;
20857;SDS011;10589;53.636;10.012;2023-04-24T17:26:08;11.80;;;7.07;;
20857;SDS011;10589;53.636;10.012;2023-04-24T17:28:34;10.00;;;7.50;;
20857;SDS011;10589;53.636;10.012;2023-04-24T17:31:00;12.73;;;7.80;;
20857;SDS011;10589;53.636;10.012;2023-04-24T17:33:26;11.73;;;7.57;;
20857;SDS011;10589;53.636;10.012;2023-04-24T17:35:54;11.77;;;7.13;;
20857;SDS011;10589;53.636;10.012;2023-04-24T17:38:21;13.37;;;8.27;;
20857;SDS011;10589;53.636;10.012;2023-04-24T17:40:47;14.37;;;8.23;;
20857;SDS011;10589;53.636;10.012;2023-04-24T17:43:21;10.70;;;7.77;;
20857;SDS011;10589;53.636;10.012;2023-04-24T17:45:48;12.50;;;7.70;;
20857;SDS011;10589;53.636;10.012;2023-04-24T17:48:15;13.67;;;8.83;;
20857;SDS011;10589;53.636;10.012;2023-04-24T17:50:42;14.77;;;9.53;;
20857;SDS011;10589;53.636;10.012;2023-04-24T17:53:08;14.97;;;8.97;;
20857;SDS011;10589;53.636;10.012;2023-04-24T17:55:37;17.57;;;9.37;;
20857;SDS011;10589;53.636;10.012;2023-04-24T17:58:04;13.50;;;8.87;;
20857;SDS011;10589;53.636;10.012;2023-04-24T18:00:31;12.77;;;8.70;;
20857;SDS011;10589;53.636;10.012;2023-04-24T18:02:57;16.73;;;9.27;;
20857;SDS011;10589;53.636;10.012;2023-04-24T18:05:28;13.87;;;8.60;;
20857;SDS011;10589;53.636;10.012;2023-04-24T18:07:56;14.93;;;9.23;;
20857;SDS011;10589;53.636;10.012;2023-04-24T18:10:23;17.50;;;8.93;;
20857;SDS011;10589;53.636;10.012;2023-04-24T18:12:51;14.13;;;8.90;;
20857;SDS011;10589;53.636;10.012;2023-04-24T18:15:17;13.73;;;7.87;;
20857;SDS011;10589;53.636;10.012;2023-04-24T18:17:43;12.40;;;8.47;;
20857;SDS011;10589;53.636;10.012;2023-04-24T18:20:09;16.17;;;8.37;;
20857;SDS011;10589;53.636;10.012;2023-04-24T18:22:37;14.67;;;8.47;;
20857;SDS011;10589;53.636;10.012;2023-04-24T18:27:33;19.53;;;9.23;;
20857;SDS011;10589;53.636;10.012;2023-04-24T18:30:04;21.83;;;9.17;;
20857;SDS011;10589;53.636;10.012;2023-04-24T18:32:31;13.63;;;8.90;;
20857;SDS011;10589;53.636;10.012;2023-04-24T18:34:58;15.13;;;9.00;;